Terminal Aerodrome Forecast
Issued by NWS Newport/Morehead City, NC

Home | Current Version | Previous Version | Graphics & Text | Print | Product List | Glossary On
Versions: 1 2 3 4 5 6 7 8 9 10 11 12 13 14 15 16 17 18 19 20
000
FTUS42 KMHX 042326
TAFEWN
TAF
KEWN 042326Z 0500/0524 06005KT P6SM -RA OVC050
     FM050800 07005KT 2SM -RA BKN002 OVC007
     FM051100 36006KT P6SM BKN002 OVC007
     FM051300 34007KT P6SM OVC009
     FM051400 34007KT P6SM BKN010
     FM051600 34006KT P6SM BKN110=

USA.gov is the U.S. government's official web portal to all federal, state and local government web resources and services.